createdAt,value
2019-05-02T00:00:33.100Z,0.00
2019-05-02T00:01:33.087Z,0.00
2019-05-02T00:02:33.078Z,0.00
2019-05-02T00:03:35.904Z,0.00
2019-05-02T00:04:33.064Z,0.00
2019-05-02T00:05:33.285Z,0.00
2019-05-02T00:06:33.061Z,0.00
2019-05-02T00:07:33.042Z,0.00
2019-05-02T00:08:33.426Z,0.00
2019-05-02T00:09:33.539Z,0.00
2019-05-02T00:10:33.010Z,0.00
2019-05-02T00:11:33.000Z,0.00
2019-05-02T00:12:32.992Z,0.00
2019-05-02T00:13:32.986Z,0.00
2019-05-02T00:14:32.978Z,0.00
2019-05-02T00:15:37.763Z,0.00
2019-05-02T00:16:32.956Z,0.00
2019-05-02T00:17:32.950Z,0.00
2019-05-02T00:18:37.076Z,0.00
2019-05-02T00:19:32.936Z,0.00
2019-05-02T00:20:32.927Z,0.00
2019-05-02T00:21:37.739Z,0.00
2019-05-02T00:22:32.905Z,0.00
2019-05-02T00:23:32.897Z,0.00
2019-05-02T00:24:34.019Z,0.00
2019-05-02T00:25:32.883Z,0.00
2019-05-02T00:26:32.875Z,0.00
2019-05-02T00:27:37.346Z,0.00
2019-05-02T00:28:32.858Z,0.00
2019-05-02T00:29:32.842Z,0.00
2019-05-02T00:30:34.576Z,0.00
2019-05-02T00:31:32.834Z,0.00
2019-05-02T00:32:32.820Z,0.00
2019-05-02T00:33:34.333Z,0.00
2019-05-02T00:34:32.796Z,0.00
2019-05-02T00:35:32.789Z,0.00
2019-05-02T00:36:32.781Z,0.00
2019-05-02T00:37:32.774Z,0.00
2019-05-02T00:38:33.411Z,0.00
2019-05-02T00:39:32.755Z,0.00
2019-05-02T00:40:32.751Z,0.00
2019-05-02T00:41:33.044Z,0.00
2019-05-02T00:42:32.723Z,0.00
2019-05-02T00:43:34.443Z,0.00
2019-05-02T00:44:32.708Z,0.00
2019-05-02T00:45:32.703Z,0.00
2019-05-02T00:46:34.953Z,0.00
2019-05-02T00:47:32.682Z,0.00
2019-05-02T00:48:32.674Z,0.00
2019-05-02T00:49:35.429Z,0.00
2019-05-02T00:50:32.661Z,0.00
2019-05-02T00:51:32.651Z,0.00
2019-05-02T00:52:33.040Z,0.00
2019-05-02T00:53:32.625Z,0.00
2019-05-02T00:54:32.615Z,0.00
2019-05-02T00:55:33.852Z,0.00
2019-05-02T00:56:32.598Z,0.00
2019-05-02T00:57:32.592Z,0.00
2019-05-02T00:58:33.122Z,0.00
2019-05-02T00:59:32.578Z,0.00
2019-05-02T01:00:32.567Z,0.00
2019-05-02T01:01:32.554Z,0.00
2019-05-02T01:02:35.859Z,0.00
2019-05-02T01:03:32.542Z,0.00
2019-05-02T01:04:32.531Z,0.00
2019-05-02T01:05:33.763Z,0.00
2019-05-02T01:06:32.510Z,0.00
2019-05-02T01:07:32.497Z,0.00
2019-05-02T01:08:35.698Z,0.00
2019-05-02T01:09:32.482Z,0.00
2019-05-02T01:10:32.478Z,0.00
2019-05-02T01:11:33.299Z,0.00
2019-05-02T01:12:32.456Z,0.00
2019-05-02T01:13:32.442Z,0.00
2019-05-02T01:14:33.289Z,0.00
2019-05-02T01:15:32.426Z,0.00
2019-05-02T01:16:32.422Z,0.00
2019-05-02T01:17:32.413Z,0.00
2019-05-02T01:18:32.403Z,0.00
2019-05-02T01:19:32.391Z,0.00
2019-05-02T01:20:32.380Z,0.00
2019-05-02T01:21:33.978Z,0.00
2019-05-02T01:22:32.365Z,0.00
2019-05-02T01:23:32.354Z,0.00
2019-05-02T01:24:34.204Z,0.00
2019-05-02T01:25:32.330Z,0.00
2019-05-02T01:26:32.322Z,0.00
2019-05-02T01:27:36.038Z,0.00
2019-05-02T01:28:32.306Z,0.00
2019-05-02T01:29:32.298Z,0.00
2019-05-02T01:30:32.297Z,0.00
2019-05-02T01:31:32.284Z,0.00
2019-05-02T01:32:32.274Z,0.00
2019-05-02T01:33:32.275Z,0.00
2019-05-02T01:34:32.250Z,0.00
2019-05-02T01:35:32.750Z,0.00
2019-05-02T01:36:32.237Z,0.00
2019-05-02T01:37:32.222Z,0.00
2019-05-02T01:38:33.741Z,0.00
2019-05-02T01:39:32.203Z,0.00
2019-05-02T01:40:32.191Z,0.00
2019-05-02T01:41:32.187Z,0.00
2019-05-02T01:42:39.632Z,0.00
2019-05-02T01:43:32.172Z,0.00
2019-05-02T01:44:36.418Z,0.00
2019-05-02T01:45:32.145Z,0.00
2019-05-02T01:46:32.137Z,0.00
2019-05-02T01:47:34.054Z,0.00
2019-05-02T01:48:32.125Z,0.00
2019-05-02T01:49:32.115Z,0.00
2019-05-02T01:50:33.583Z,0.00
2019-05-02T01:51:32.091Z,0.00
2019-05-02T01:52:32.082Z,0.00
2019-05-02T01:53:34.169Z,0.00
2019-05-02T01:54:32.067Z,0.00
2019-05-02T01:55:32.057Z,0.00
2019-05-02T01:56:33.156Z,0.00
2019-05-02T01:57:32.033Z,0.00
2019-05-02T01:58:32.024Z,0.00
2019-05-02T01:59:33.870Z,0.00
2019-05-02T02:00:32.006Z,0.00
2019-05-02T02:01:32.001Z,0.00
2019-05-02T02:02:32.823Z,0.00
2019-05-02T02:03:31.999Z,0.00
2019-05-02T02:04:32.003Z,0.00
2019-05-02T02:05:32.572Z,0.00
2019-05-02T02:06:31.953Z,0.00
2019-05-02T02:07:31.946Z,0.00
2019-05-02T02:08:32.517Z,0.00
2019-05-02T02:09:31.923Z,0.00
2019-05-02T02:10:31.914Z,0.00
2019-05-02T02:11:34.046Z,0.00
2019-05-02T02:12:31.894Z,0.00
2019-05-02T02:13:36.499Z,0.00
2019-05-02T02:14:31.879Z,0.00
2019-05-02T02:15:31.869Z,0.00
2019-05-02T02:16:35.189Z,0.00
2019-05-02T02:17:31.845Z,0.00
2019-05-02T02:18:31.836Z,0.00
2019-05-02T02:19:34.654Z,0.00
2019-05-02T02:20:31.821Z,0.00
2019-05-02T02:21:31.813Z,0.00
2019-05-02T02:22:33.832Z,0.00
2019-05-02T02:23:31.794Z,0.00
2019-05-02T02:24:31.783Z,0.00
2019-05-02T02:25:32.155Z,0.00
2019-05-02T02:26:31.767Z,0.00
2019-05-02T02:27:31.756Z,0.00
2019-05-02T02:28:32.230Z,0.00
2019-05-02T02:29:31.733Z,0.00
2019-05-02T02:30:31.725Z,0.00
2019-05-02T02:31:31.719Z,0.00
2019-05-02T02:32:31.707Z,0.00
2019-05-02T02:33:31.701Z,0.00
2019-05-02T02:34:32.426Z,0.00
2019-05-02T02:35:31.686Z,0.00
2019-05-02T02:36:34.682Z,0.00
2019-05-02T02:37:31.663Z,0.00
2019-05-02T02:38:33.638Z,0.00
2019-05-02T02:39:31.648Z,0.00
2019-05-02T02:40:33.540Z,0.00
2019-05-02T02:41:31.627Z,0.00
2019-05-02T02:42:34.105Z,0.00
2019-05-02T02:43:34.686Z,0.00
2019-05-02T02:44:33.738Z,0.00
2019-05-02T02:45:31.592Z,0.00
2019-05-02T02:46:38.069Z,0.00
2019-05-02T02:47:31.575Z,0.00
2019-05-02T02:48:34.041Z,0.00
2019-05-02T02:49:31.553Z,0.00
2019-05-02T02:50:36.828Z,0.00
2019-05-02T02:51:31.535Z,0.00
2019-05-02T02:52:31.524Z,0.00
2019-05-02T02:53:31.559Z,0.00
2019-05-02T02:54:36.800Z,0.00
2019-05-02T02:55:31.498Z,0.00
2019-05-02T02:56:34.368Z,0.00
2019-05-02T02:57:31.483Z,0.00
2019-05-02T02:58:31.476Z,0.00
2019-05-02T02:59:31.467Z,0.00
2019-05-02T03:00:31.460Z,0.00
2019-05-02T03:01:31.449Z,0.00
2019-05-02T03:02:31.438Z,0.00
2019-05-02T03:03:35.164Z,0.00
2019-05-02T03:04:31.421Z,0.00
2019-05-02T03:05:31.417Z,0.00
2019-05-02T03:06:31.410Z,0.00
2019-05-02T03:07:31.401Z,0.00
2019-05-02T03:08:31.402Z,0.00
2019-05-02T03:09:31.377Z,0.00
2019-05-02T03:10:31.367Z,0.00
2019-05-02T03:11:31.360Z,0.00
2019-05-02T03:12:36.313Z,0.00
2019-05-02T03:13:31.339Z,0.00
2019-05-02T03:14:31.332Z,0.00
2019-05-02T03:15:31.325Z,0.00
2019-05-02T03:16:31.316Z,0.00
2019-05-02T03:17:31.318Z,0.00
2019-05-02T03:18:39.825Z,0.00
2019-05-02T03:19:31.299Z,0.00
2019-05-02T03:20:39.884Z,0.00
2019-05-02T03:21:31.274Z,0.00
2019-05-02T03:22:34.796Z,0.00
2019-05-02T03:23:31.253Z,0.00
2019-05-02T03:24:36.688Z,0.00
2019-05-02T03:25:49.647Z,0.00
2019-05-02T03:26:31.232Z,0.00
2019-05-02T03:27:37.343Z,0.00
2019-05-02T03:28:31.225Z,0.00
2019-05-02T03:29:41.387Z,0.00
2019-05-02T03:30:37.027Z,0.00
2019-05-02T03:31:31.721Z,0.00
2019-05-02T03:32:35.296Z,0.00
2019-05-02T03:33:31.171Z,0.00
2019-05-02T03:34:47.098Z,0.00
2019-05-02T03:35:43.228Z,0.00
2019-05-02T03:36:35.774Z,0.00
2019-05-02T03:37:31.146Z,0.00
2019-05-02T03:38:32.643Z,0.00
2019-05-02T03:39:31.121Z,0.00
2019-05-02T03:40:32.170Z,0.00
2019-05-02T03:41:31.100Z,0.00
2019-05-02T03:42:43.904Z,0.00
2019-05-02T03:43:31.086Z,0.00
2019-05-02T03:44:31.080Z,0.00
2019-05-02T03:45:32.417Z,0.00
2019-05-02T03:46:31.058Z,0.00
2019-05-02T03:47:36.744Z,0.00
2019-05-02T03:48:31.046Z,0.00
2019-05-02T03:49:31.039Z,0.00
2019-05-02T03:50:32.539Z,0.00
2019-05-02T03:51:31.019Z,0.00
2019-05-02T03:52:36.720Z,0.00
2019-05-02T03:53:30.998Z,0.00
2019-05-02T03:54:30.990Z,0.00
2019-05-02T03:55:33.849Z,0.00
2019-05-02T03:56:30.976Z,0.00
2019-05-02T03:57:33.123Z,0.00
2019-05-02T03:58:30.961Z,5.63
2019-05-02T03:59:38.979Z,5.63
2019-05-02T04:00:30.942Z,5.63
2019-05-02T04:01:34.708Z,5.63
2019-05-02T04:02:30.928Z,5.63
2019-05-02T04:03:34.016Z,5.63
2019-05-02T04:04:30.915Z,5.63
2019-05-02T04:05:33.846Z,5.63
2019-05-02T04:06:30.889Z,5.63
2019-05-02T04:07:39.781Z,11.25
2019-05-02T04:08:30.871Z,11.25
2019-05-02T04:09:32.043Z,11.25
2019-05-02T04:10:30.859Z,11.25
2019-05-02T04:11:37.837Z,11.25
2019-05-02T04:12:33.072Z,11.25
2019-05-02T04:13:36.287Z,16.88
2019-05-02T04:14:37.712Z,16.88
2019-05-02T04:15:35.179Z,16.88
2019-05-02T04:16:30.814Z,16.88
2019-05-02T04:17:35.668Z,16.88
2019-05-02T04:18:30.790Z,16.88
2019-05-02T04:19:34.850Z,16.88
2019-05-02T04:20:30.775Z,16.88
2019-05-02T04:21:30.766Z,22.50
2019-05-02T04:22:30.758Z,22.50
2019-05-02T04:23:30.749Z,22.50
2019-05-02T04:24:30.744Z,22.50
2019-05-02T04:25:34.031Z,22.50
2019-05-02T04:26:30.721Z,22.50
2019-05-02T04:27:34.106Z,22.50
2019-05-02T04:28:30.710Z,22.50
2019-05-02T04:29:32.839Z,22.50
2019-05-02T04:30:30.694Z,22.50
2019-05-02T04:31:33.629Z,22.50
2019-05-02T04:32:30.675Z,22.50
2019-05-02T04:33:34.980Z,28.13
2019-05-02T04:34:30.659Z,28.13
2019-05-02T04:35:34.904Z,28.13
2019-05-02T04:36:30.642Z,28.13
2019-05-02T04:37:34.213Z,33.75
2019-05-02T04:38:39.334Z,39.38
2019-05-02T04:39:30.616Z,39.38
2019-05-02T04:40:35.084Z,39.38
2019-05-02T04:41:34.141Z,39.38
2019-05-02T04:42:30.591Z,45.00
2019-05-02T04:43:30.605Z,45.00
2019-05-02T04:44:41.064Z,50.63
2019-05-02T04:45:47.317Z,56.25
2019-05-02T04:46:31.329Z,56.25
2019-05-02T04:47:30.554Z,61.88
2019-05-02T04:48:34.615Z,67.50
2019-05-02T04:49:35.542Z,73.13
2019-05-02T04:50:30.526Z,73.13
2019-05-02T04:51:32.143Z,78.75
2019-05-02T04:52:30.508Z,84.38
2019-05-02T04:53:36.826Z,84.38
2019-05-02T04:54:32.378Z,84.38
2019-05-02T04:55:33.448Z,90.00
2019-05-02T04:56:30.484Z,90.00
2019-05-02T04:57:36.786Z,95.63
2019-05-02T04:58:34.862Z,95.63
2019-05-02T04:59:32.901Z,101.25
2019-05-02T05:00:30.447Z,101.25
2019-05-02T05:01:42.051Z,112.50
2019-05-02T05:02:36.514Z,112.50
2019-05-02T05:03:30.422Z,112.50
2019-05-02T05:04:33.141Z,106.88
2019-05-02T05:05:31.347Z,101.25
2019-05-02T05:06:30.401Z,106.88
2019-05-02T05:07:40.034Z,106.88
2019-05-02T05:08:31.866Z,101.25
2019-05-02T05:09:30.375Z,112.50
2019-05-02T05:10:40.314Z,106.88
2019-05-02T05:11:30.360Z,112.50
2019-05-02T05:12:32.535Z,112.50
2019-05-02T05:13:30.350Z,112.50
2019-05-02T05:14:37.859Z,106.88
2019-05-02T05:15:38.393Z,106.88
2019-05-02T05:16:30.323Z,106.88
2019-05-02T05:17:32.983Z,101.25
2019-05-02T05:18:30.303Z,106.88
2019-05-02T05:19:32.781Z,112.50
2019-05-02T05:20:30.303Z,118.13
2019-05-02T05:21:30.290Z,112.50
2019-05-02T05:22:30.275Z,112.50
2019-05-02T05:23:30.273Z,106.88
2019-05-02T05:24:32.925Z,112.50
2019-05-02T05:25:30.261Z,123.75
2019-05-02T05:26:33.921Z,129.38
2019-05-02T05:27:30.243Z,129.38
2019-05-02T05:28:30.240Z,129.38
2019-05-02T05:29:30.227Z,140.63
2019-05-02T05:30:30.218Z,140.63
2019-05-02T05:31:30.216Z,140.63
2019-05-02T05:32:30.201Z,135.00
2019-05-02T05:33:30.197Z,140.63
2019-05-02T05:34:32.605Z,140.63
2019-05-02T05:35:30.178Z,146.25
2019-05-02T05:36:33.902Z,146.25
2019-05-02T05:37:30.166Z,146.25
2019-05-02T05:38:32.642Z,146.25
2019-05-02T05:39:30.156Z,140.63
2019-05-02T05:40:32.108Z,140.63
2019-05-02T05:41:30.136Z,146.25
2019-05-02T05:42:33.325Z,146.25
2019-05-02T05:43:30.124Z,146.25
2019-05-02T05:44:32.659Z,146.25
2019-05-02T05:45:30.113Z,151.88
2019-05-02T05:46:33.399Z,168.75
2019-05-02T05:47:30.095Z,174.38
2019-05-02T05:48:32.129Z,180.00
2019-05-02T05:49:30.075Z,191.25
2019-05-02T05:50:32.253Z,191.25
2019-05-02T05:51:30.066Z,208.13
2019-05-02T05:52:33.071Z,219.38
2019-05-02T05:53:30.048Z,219.38
2019-05-02T05:54:32.953Z,213.75
2019-05-02T05:55:31.580Z,202.50
2019-05-02T05:56:32.571Z,202.50
2019-05-02T05:57:30.029Z,196.88
2019-05-02T05:58:30.021Z,202.50
2019-05-02T05:59:32.001Z,196.88
2019-05-02T06:00:30.001Z,196.88
2019-05-02T06:01:34.099Z,196.88
2019-05-02T06:02:30.016Z,202.50
2019-05-02T06:03:33.987Z,219.38
2019-05-02T06:04:33.059Z,236.25
2019-05-02T06:05:33.118Z,230.63
2019-05-02T06:06:29.964Z,236.25
2019-05-02T06:07:33.611Z,236.25
2019-05-02T06:08:29.954Z,247.50
2019-05-02T06:09:31.297Z,270.00
2019-05-02T06:10:29.936Z,281.25
2019-05-02T06:11:29.926Z,270.00
2019-05-02T06:12:31.826Z,275.63
2019-05-02T06:13:29.917Z,281.25
2019-05-02T06:14:29.912Z,286.88
2019-05-02T06:15:33.923Z,270.00
2019-05-02T06:16:29.901Z,281.25
2019-05-02T06:17:30.466Z,258.75
2019-05-02T06:18:29.882Z,258.75
2019-05-02T06:19:29.881Z,258.75
2019-05-02T06:20:30.673Z,247.50
2019-05-02T06:21:29.871Z,213.75
2019-05-02T06:22:29.864Z,191.25
2019-05-02T06:23:30.978Z,208.13
2019-05-02T06:24:29.848Z,219.38
2019-05-02T06:25:34.338Z,225.00
2019-05-02T06:26:29.842Z,230.63
2019-05-02T06:27:30.468Z,241.88
2019-05-02T06:28:29.825Z,225.00
2019-05-02T06:29:29.814Z,225.00
2019-05-02T06:30:31.007Z,253.13
2019-05-02T06:31:29.802Z,264.38
2019-05-02T06:32:29.797Z,230.63
2019-05-02T06:33:30.545Z,219.38
2019-05-02T06:34:29.789Z,225.00
2019-05-02T06:35:29.784Z,247.50
2019-05-02T06:36:31.959Z,286.88
2019-05-02T06:37:29.767Z,309.38
2019-05-02T06:38:29.764Z,320.63
2019-05-02T06:39:32.011Z,326.25
2019-05-02T06:40:29.756Z,309.38
2019-05-02T06:41:29.743Z,298.13
2019-05-02T06:42:32.699Z,281.25
2019-05-02T06:43:29.733Z,236.25
2019-05-02T06:44:29.726Z,281.25
2019-05-02T06:45:32.268Z,292.50
2019-05-02T06:46:29.815Z,303.75
2019-05-02T06:47:29.712Z,292.50
2019-05-02T06:48:29.705Z,320.63
2019-05-02T06:49:29.695Z,331.88
2019-05-02T06:50:33.361Z,331.88
2019-05-02T06:51:29.687Z,331.88
2019-05-02T06:52:32.750Z,326.25
2019-05-02T06:53:29.678Z,337.50
2019-05-02T06:54:29.673Z,360.00
2019-05-02T06:55:36.161Z,382.50
2019-05-02T06:56:29.658Z,354.38
2019-05-02T06:57:29.658Z,343.13
2019-05-02T06:58:29.650Z,337.50
2019-05-02T06:59:29.642Z,337.50
2019-05-02T07:00:39.597Z,360.00
2019-05-02T07:01:29.627Z,286.88
2019-05-02T07:02:33.541Z,292.50
2019-05-02T07:03:29.620Z,320.63
2019-05-02T07:04:29.613Z,298.13
2019-05-02T07:05:29.612Z,309.38
2019-05-02T07:06:29.870Z,303.75
2019-05-02T07:07:31.340Z,286.88
2019-05-02T07:08:29.661Z,286.88
2019-05-02T07:09:40.578Z,298.13
2019-05-02T07:10:37.837Z,343.13
2019-05-02T07:11:33.321Z,393.75
2019-05-02T07:12:29.573Z,399.38
2019-05-02T07:13:29.562Z,405.00
2019-05-02T07:14:29.558Z,393.75
2019-05-02T07:15:33.707Z,399.38
2019-05-02T07:16:38.388Z,450.00
2019-05-02T07:17:32.080Z,500.63
2019-05-02T07:18:29.543Z,534.38
2019-05-02T07:19:29.546Z,551.25
2019-05-02T07:20:29.533Z,528.75
2019-05-02T07:21:29.523Z,506.25
2019-05-02T07:22:33.215Z,478.13
2019-05-02T07:23:29.512Z,393.75
2019-05-02T07:24:30.880Z,331.88
2019-05-02T07:25:29.503Z,388.13
2019-05-02T07:26:29.499Z,365.63
2019-05-02T07:27:33.755Z,354.38
2019-05-02T07:28:29.486Z,360.00
2019-05-02T07:29:29.485Z,371.25
2019-05-02T07:30:30.018Z,354.38
2019-05-02T07:31:29.481Z,354.38
2019-05-02T07:32:29.473Z,331.88
2019-05-02T07:33:32.440Z,309.38
2019-05-02T07:34:29.460Z,343.13
2019-05-02T07:35:29.454Z,376.88
2019-05-02T07:36:31.212Z,382.50
2019-05-02T07:37:29.449Z,405.00
2019-05-02T07:38:29.446Z,421.88
2019-05-02T07:39:29.436Z,427.50
2019-05-02T07:40:29.432Z,444.38
2019-05-02T07:41:30.324Z,444.38
2019-05-02T07:42:29.420Z,472.50
2019-05-02T07:43:29.419Z,495.00
2019-05-02T07:44:32.826Z,500.63
2019-05-02T07:45:29.403Z,489.38
2019-05-02T07:46:29.406Z,500.63
2019-05-02T07:47:29.401Z,579.38
2019-05-02T07:48:29.398Z,618.75
2019-05-02T07:49:32.270Z,630.00
2019-05-02T07:50:29.391Z,613.13
2019-05-02T07:51:29.385Z,562.50
2019-05-02T07:52:33.604Z,523.13
2019-05-02T07:53:29.370Z,528.75
2019-05-02T07:54:29.366Z,528.75
2019-05-02T07:55:30.676Z,506.25
2019-05-02T07:56:29.356Z,466.88
2019-05-02T07:57:30.543Z,427.50
2019-05-02T07:58:29.350Z,388.13
2019-05-02T07:59:29.343Z,393.75
2019-05-02T08:00:32.172Z,388.13
2019-05-02T08:01:29.340Z,388.13
2019-05-02T08:02:29.337Z,376.88
2019-05-02T08:03:33.455Z,382.50
2019-05-02T08:04:29.330Z,388.13
2019-05-02T08:05:29.321Z,388.13
2019-05-02T08:06:35.414Z,388.13
2019-05-02T08:07:34.326Z,388.13
2019-05-02T08:08:30.232Z,360.00
2019-05-02T08:09:29.311Z,337.50
2019-05-02T08:10:29.300Z,348.75
2019-05-02T08:11:32.219Z,348.75
2019-05-02T08:12:29.295Z,343.13
2019-05-02T08:13:31.419Z,354.38
2019-05-02T08:14:34.441Z,315.00
2019-05-02T08:15:29.285Z,320.63
2019-05-02T08:16:29.280Z,320.63
2019-05-02T08:17:29.270Z,320.63
2019-05-02T08:18:30.386Z,337.50
2019-05-02T08:19:29.263Z,354.38
2019-05-02T08:20:29.255Z,348.75
2019-05-02T08:21:32.457Z,343.13
2019-05-02T08:22:29.250Z,343.13
2019-05-02T08:23:29.246Z,343.13
2019-05-02T08:24:33.071Z,371.25
2019-05-02T08:25:29.232Z,416.25
2019-05-02T08:26:29.229Z,421.88
2019-05-02T08:27:34.455Z,421.88
2019-05-02T08:28:29.234Z,421.88
2019-05-02T08:29:30.747Z,421.88
2019-05-02T08:30:29.218Z,427.50
2019-05-02T08:31:30.264Z,427.50
2019-05-02T08:32:29.207Z,444.38
2019-05-02T08:33:34.855Z,461.25
2019-05-02T08:34:29.232Z,455.63
2019-05-02T08:35:29.198Z,450.00
2019-05-02T08:36:29.194Z,433.13
2019-05-02T08:37:29.184Z,427.50
2019-05-02T08:38:29.179Z,433.13
2019-05-02T08:39:33.014Z,427.50
2019-05-02T08:40:29.171Z,388.13
2019-05-02T08:41:29.180Z,371.25
2019-05-02T08:42:32.555Z,388.13
2019-05-02T08:43:29.171Z,388.13
2019-05-02T08:44:29.178Z,416.25
2019-05-02T08:45:32.972Z,455.63
2019-05-02T08:46:29.152Z,551.25
2019-05-02T08:47:30.569Z,669.38
2019-05-02T08:48:29.148Z,753.75
2019-05-02T08:49:29.138Z,776.25
2019-05-02T08:50:31.827Z,669.38
2019-05-02T08:51:29.130Z,556.88
2019-05-02T08:52:29.125Z,506.25
2019-05-02T08:53:29.126Z,528.75
2019-05-02T08:54:32.917Z,562.50
2019-05-02T08:55:30.018Z,562.50
2019-05-02T08:56:29.116Z,483.75
2019-05-02T08:57:29.936Z,433.13
2019-05-02T08:58:29.106Z,416.25
2019-05-02T08:59:29.106Z,393.75
2019-05-02T09:00:32.112Z,405.00
2019-05-02T09:01:35.399Z,427.50
2019-05-02T09:02:40.828Z,450.00
2019-05-02T09:03:29.092Z,461.25
2019-05-02T09:04:30.663Z,500.63
2019-05-02T09:05:29.161Z,523.13
2019-05-02T09:06:29.087Z,551.25
2019-05-02T09:07:31.563Z,573.75
2019-05-02T09:08:29.078Z,551.25
2019-05-02T09:09:29.575Z,601.88
2019-05-02T09:10:29.067Z,607.50
2019-05-02T09:11:29.068Z,590.63
2019-05-02T09:12:29.065Z,500.63
2019-05-02T09:13:29.606Z,466.88
2019-05-02T09:14:29.061Z,478.13
2019-05-02T09:15:29.057Z,483.75
2019-05-02T09:16:30.577Z,500.63
2019-05-02T09:17:36.041Z,511.88
2019-05-02T09:18:35.049Z,511.88
2019-05-02T09:19:31.708Z,523.13
2019-05-02T09:20:29.045Z,500.63
2019-05-02T09:21:32.175Z,506.25
2019-05-02T09:22:29.034Z,466.88
2019-05-02T09:23:33.276Z,461.25
2019-05-02T09:24:29.030Z,466.88
2019-05-02T09:25:29.033Z,478.13
2019-05-02T09:26:36.094Z,489.38
2019-05-02T09:27:29.027Z,511.88
2019-05-02T09:28:29.028Z,511.88
2019-05-02T09:29:29.015Z,489.38
2019-05-02T09:30:29.013Z,472.50
2019-05-02T09:31:29.007Z,528.75
2019-05-02T09:32:29.006Z,523.13
2019-05-02T09:33:29.006Z,551.25
2019-05-02T09:34:29.003Z,585.00
2019-05-02T09:35:29.000Z,596.25
2019-05-02T09:36:28.994Z,573.75
2019-05-02T09:37:28.997Z,590.63
2019-05-02T09:38:28.994Z,630.00
2019-05-02T09:39:34.170Z,658.13
2019-05-02T09:40:28.992Z,703.13
2019-05-02T09:41:32.476Z,731.25
2019-05-02T09:42:28.984Z,787.50
2019-05-02T09:43:29.471Z,798.75
2019-05-02T09:44:28.977Z,781.88
2019-05-02T09:45:35.832Z,765.00
2019-05-02T09:46:28.976Z,883.13
2019-05-02T09:47:33.088Z,1254.38
2019-05-02T09:48:28.971Z,2947.50
2019-05-02T09:49:28.963Z,1985.63
2019-05-02T09:50:31.361Z,1372.50
2019-05-02T09:51:28.964Z,1305.00
2019-05-02T09:52:34.094Z,1395.00
2019-05-02T09:53:28.956Z,1411.88
2019-05-02T09:54:28.956Z,1681.88
2019-05-02T09:55:28.961Z,2795.63
2019-05-02T09:56:28.958Z,1743.75
2019-05-02T09:57:28.961Z,2345.63
2019-05-02T09:58:28.961Z,2941.88
2019-05-02T09:59:30.394Z,2638.13
2019-05-02T10:00:32.144Z,3037.50
2019-05-02T10:01:28.962Z,3026.25
2019-05-02T10:02:28.966Z,2885.63
2019-05-02T10:03:28.970Z,1766.25
2019-05-02T10:04:28.967Z,2700.00
2019-05-02T10:05:28.976Z,2446.88
2019-05-02T10:06:32.041Z,1423.13
2019-05-02T10:07:28.988Z,1468.13
2019-05-02T10:08:28.982Z,2205.00
2019-05-02T10:09:28.992Z,1794.38
2019-05-02T10:10:29.001Z,1710.00
2019-05-02T10:11:29.002Z,1771.88
2019-05-02T10:12:29.007Z,2514.38
2019-05-02T10:13:29.008Z,1546.88
2019-05-02T10:14:29.012Z,1805.63
2019-05-02T10:15:29.018Z,2638.13
2019-05-02T10:16:29.024Z,2008.13
2019-05-02T10:17:29.038Z,2368.13
2019-05-02T10:18:30.415Z,2514.38
2019-05-02T10:19:29.045Z,2520.00
2019-05-02T10:20:31.856Z,2745.00
2019-05-02T10:21:29.047Z,2424.38
2019-05-02T10:22:32.247Z,2469.38
2019-05-02T10:23:29.061Z,2626.88
2019-05-02T10:24:29.069Z,2902.50
2019-05-02T10:25:32.872Z,2885.63
2019-05-02T10:26:29.076Z,2874.38
2019-05-02T10:27:29.086Z,2621.25
2019-05-02T10:28:29.097Z,2160.00
2019-05-02T10:29:29.911Z,2671.88
2019-05-02T10:30:29.112Z,1524.38
2019-05-02T10:31:35.714Z,2638.13
2019-05-02T10:32:29.130Z,1501.88
2019-05-02T10:33:33.513Z,1681.88
2019-05-02T10:34:29.221Z,3105.00
2019-05-02T10:35:37.497Z,2041.88
2019-05-02T10:36:29.156Z,1085.63
2019-05-02T10:37:30.560Z,984.38
2019-05-02T10:38:29.176Z,1282.50
2019-05-02T10:39:34.052Z,1158.75
2019-05-02T10:40:29.187Z,2115.00
2019-05-02T10:41:31.685Z,1091.25
2019-05-02T10:42:29.203Z,1091.25
2019-05-02T10:43:29.214Z,1102.50
2019-05-02T10:44:32.597Z,1125.00
2019-05-02T10:45:29.223Z,3954.38
2019-05-02T10:46:33.595Z,3746.25
2019-05-02T10:47:29.236Z,4516.88
2019-05-02T10:48:29.346Z,2790.00
2019-05-02T10:49:29.251Z,3341.25
2019-05-02T10:50:29.257Z,4291.88
2019-05-02T10:51:29.262Z,1091.25
2019-05-02T10:52:30.249Z,961.88
2019-05-02T10:53:29.272Z,894.38
2019-05-02T10:54:33.852Z,3121.88
2019-05-02T10:55:29.297Z,3791.25
2019-05-02T10:56:29.297Z,2576.25
2019-05-02T10:57:29.301Z,3442.50
2019-05-02T10:58:34.166Z,1231.88
2019-05-02T10:59:29.318Z,3690.00
2019-05-02T11:00:29.323Z,3903.75
2019-05-02T11:01:29.331Z,2896.88
2019-05-02T11:02:29.340Z,3397.50
2019-05-02T11:03:29.346Z,3566.25
2019-05-02T11:04:29.484Z,1456.88
2019-05-02T11:05:29.356Z,1181.25
2019-05-02T11:06:29.366Z,995.63
2019-05-02T11:07:29.367Z,1029.38
2019-05-02T11:08:29.377Z,1445.63
2019-05-02T11:09:29.385Z,1636.88
2019-05-02T11:10:29.392Z,2418.75
2019-05-02T11:11:29.396Z,2469.38
2019-05-02T11:12:40.766Z,2323.13
2019-05-02T11:13:29.413Z,2975.63
2019-05-02T11:14:29.421Z,3183.75
2019-05-02T11:15:29.430Z,2655.00
2019-05-02T11:16:29.435Z,1687.50
2019-05-02T11:17:29.440Z,2053.13
2019-05-02T11:18:40.392Z,1912.50
2019-05-02T11:19:29.448Z,1102.50
2019-05-02T11:20:29.456Z,1040.63
2019-05-02T11:21:29.464Z,1035.00
2019-05-02T11:22:29.471Z,1164.38
2019-05-02T11:23:29.517Z,1158.75
2019-05-02T11:24:31.547Z,1260.00
2019-05-02T11:25:29.486Z,1316.25
2019-05-02T11:26:29.492Z,1361.25
2019-05-02T11:27:29.503Z,1316.25
2019-05-02T11:28:29.507Z,1316.25
2019-05-02T11:29:29.509Z,1293.75
2019-05-02T11:30:29.513Z,1254.38
2019-05-02T11:31:29.515Z,1158.75
2019-05-02T11:32:29.520Z,1170.00
2019-05-02T11:33:29.529Z,1125.00
2019-05-02T11:34:29.534Z,1119.38
2019-05-02T11:35:31.691Z,1186.88
2019-05-02T11:36:29.544Z,1113.75
2019-05-02T11:37:29.545Z,1096.88
2019-05-02T11:38:43.534Z,1136.25
2019-05-02T11:39:37.437Z,1080.00
2019-05-02T11:40:29.561Z,1119.38
2019-05-02T11:41:31.579Z,1102.50
2019-05-02T11:42:29.572Z,1130.63
2019-05-02T11:43:29.572Z,1158.75
2019-05-02T11:44:29.576Z,1209.38
2019-05-02T11:45:29.582Z,1192.50
2019-05-02T11:46:29.585Z,1175.63
2019-05-02T11:47:29.589Z,1096.88
2019-05-02T11:48:29.591Z,1080.00
2019-05-02T11:49:29.594Z,1029.38
2019-05-02T11:50:31.882Z,1029.38
2019-05-02T11:51:29.597Z,1023.75
2019-05-02T11:52:33.026Z,1012.50
2019-05-02T11:53:29.761Z,945.00
2019-05-02T11:54:29.612Z,950.63
2019-05-02T11:55:31.809Z,978.75
2019-05-02T11:56:29.622Z,1012.50
2019-05-02T11:57:32.570Z,1001.25
2019-05-02T11:58:29.623Z,1006.88
2019-05-02T11:59:31.832Z,967.50
2019-05-02T12:00:29.633Z,945.00
2019-05-02T12:02:31.897Z,984.38
2019-05-02T12:03:35.454Z,961.88
2019-05-02T12:04:29.643Z,978.75
2019-05-02T12:05:31.833Z,984.38
2019-05-02T12:06:29.648Z,973.13
2019-05-02T12:07:29.650Z,956.25
2019-05-02T12:08:31.814Z,978.75
2019-05-02T12:09:29.650Z,956.25
2019-05-02T12:10:34.866Z,939.38
2019-05-02T12:11:29.658Z,905.63
2019-05-02T12:12:34.234Z,877.50
2019-05-02T12:13:29.667Z,838.13
2019-05-02T12:14:32.784Z,894.38
2019-05-02T12:15:29.669Z,900.00
2019-05-02T12:16:29.673Z,894.38
2019-05-02T12:17:29.679Z,888.75
2019-05-02T12:18:29.681Z,843.75
2019-05-02T12:19:29.682Z,888.75
2019-05-02T12:20:33.899Z,916.88
2019-05-02T12:21:29.682Z,928.13
2019-05-02T12:22:29.683Z,928.13
2019-05-02T12:23:29.691Z,956.25
2019-05-02T12:24:31.765Z,945.00
2019-05-02T12:25:29.698Z,877.50
2019-05-02T12:26:29.699Z,871.88
2019-05-02T12:27:31.743Z,826.88
2019-05-02T12:28:29.701Z,714.38
2019-05-02T12:29:29.698Z,675.00
2019-05-02T12:30:36.051Z,759.38
2019-05-02T12:31:32.132Z,714.38
2019-05-02T12:32:29.711Z,770.63
2019-05-02T12:33:31.741Z,770.63
2019-05-02T12:34:29.711Z,815.63
2019-05-02T12:35:29.715Z,703.13
2019-05-02T12:36:29.719Z,618.75
2019-05-02T12:37:29.722Z,579.38
2019-05-02T12:38:29.725Z,579.38
2019-05-02T12:39:31.603Z,596.25
2019-05-02T12:40:29.727Z,669.38
2019-05-02T12:41:29.725Z,720.00
2019-05-02T12:42:30.033Z,725.63